createdAt,value
2019-03-23T00:01:57.690Z,1029.74
2019-03-23T00:05:53.190Z,1029.72
2019-03-23T00:07:53.150Z,1029.69
2019-03-23T00:11:53.164Z,1029.66
2019-03-23T00:13:53.163Z,1029.69
2019-03-23T00:17:53.173Z,1029.62
2019-03-23T00:19:53.160Z,1029.60
2019-03-23T00:23:53.155Z,1029.63
2019-03-23T00:25:53.178Z,1029.58
2019-03-23T00:31:53.173Z,1029.51
2019-03-23T00:33:55.353Z,1029.47
2019-03-23T00:37:53.178Z,1029.45
2019-03-23T00:39:53.182Z,1029.45
2019-03-23T00:43:59.980Z,1029.50
2019-03-23T00:45:53.209Z,1029.41
2019-03-23T00:49:56.840Z,1029.39
2019-03-23T00:51:53.211Z,1029.37
2019-03-23T00:55:53.180Z,1029.37
2019-03-23T00:57:53.212Z,1029.34
2019-03-23T01:01:53.207Z,1029.38
2019-03-23T01:03:53.195Z,1029.44
2019-03-23T01:07:53.192Z,1029.34
2019-03-23T01:09:57.824Z,1029.38
2019-03-23T01:13:53.232Z,1029.44
2019-03-23T01:15:53.208Z,1029.45
2019-03-23T01:19:53.221Z,1029.49
2019-03-23T01:21:53.225Z,1029.55
2019-03-23T01:25:53.248Z,1029.54
2019-03-23T01:27:53.200Z,1029.58
2019-03-23T01:31:53.231Z,1029.57
2019-03-23T01:33:53.230Z,1029.60
2019-03-23T01:37:53.239Z,1029.62
2019-03-23T01:39:58.260Z,1029.66
2019-03-23T01:43:53.232Z,1029.69
2019-03-23T01:45:53.240Z,1029.61
2019-03-23T01:49:53.245Z,1029.66
2019-03-23T01:51:53.236Z,1029.58
2019-03-23T01:55:53.248Z,1029.55
2019-03-23T01:57:53.239Z,1029.49
2019-03-23T02:01:53.247Z,1029.50
2019-03-23T02:03:53.232Z,1029.46
2019-03-23T02:07:53.272Z,1029.49
2019-03-23T02:09:53.260Z,1029.51
2019-03-23T02:13:53.266Z,1029.46
2019-03-23T02:15:53.254Z,1029.44
2019-03-23T02:19:53.261Z,1029.38
2019-03-23T02:21:53.272Z,1029.31
2019-03-23T02:25:53.280Z,1029.25
2019-03-23T02:27:53.282Z,1029.30
2019-03-23T02:31:53.295Z,1029.34
2019-03-23T02:33:53.297Z,1029.36
2019-03-23T02:37:53.278Z,1029.32
2019-03-23T02:39:53.295Z,1029.37
2019-03-23T02:43:53.285Z,1029.38
2019-03-23T02:45:53.291Z,1029.40
2019-03-23T02:49:53.327Z,1029.43
2019-03-23T02:51:53.308Z,1029.46
2019-03-23T02:55:53.306Z,1029.55
2019-03-23T02:57:53.287Z,1029.51
2019-03-23T03:01:53.315Z,1029.55
2019-03-23T03:03:53.297Z,1029.57
2019-03-23T03:07:53.320Z,1029.66
2019-03-23T03:09:53.305Z,1029.62
2019-03-23T03:14:01.135Z,1029.63
2019-03-23T03:15:53.328Z,1029.60
2019-03-23T03:19:53.320Z,1029.58
2019-03-23T03:21:53.422Z,1029.54
2019-03-23T03:27:53.327Z,1029.58
2019-03-23T03:31:58.357Z,1029.64
2019-03-23T03:33:53.318Z,1029.65
2019-03-23T03:37:56.898Z,1029.69
2019-03-23T03:39:53.350Z,1029.73
2019-03-23T03:43:53.356Z,1029.57
2019-03-23T03:45:53.336Z,1029.60
2019-03-23T03:49:53.340Z,1029.62
2019-03-23T03:51:53.339Z,1029.67
2019-03-23T03:55:53.385Z,1029.71
2019-03-23T03:57:53.368Z,1029.73
2019-03-23T04:01:53.349Z,1029.73
2019-03-23T04:03:53.366Z,1029.75
2019-03-23T04:07:53.382Z,1029.77
2019-03-23T04:09:53.384Z,1029.70
2019-03-23T04:13:53.386Z,1029.80
2019-03-23T04:15:53.373Z,1029.77
2019-03-23T04:19:53.360Z,1029.85
2019-03-23T04:21:53.383Z,1029.86
2019-03-23T04:25:53.392Z,1029.97
2019-03-23T04:27:53.386Z,1030.00
2019-03-23T04:31:53.403Z,1030.05
2019-03-23T04:33:53.393Z,1030.07
2019-03-23T04:37:53.391Z,1030.16
2019-03-23T04:39:53.377Z,1030.14
2019-03-23T04:43:53.374Z,1030.20
2019-03-23T04:45:53.403Z,1030.19
2019-03-23T04:49:53.387Z,1030.23
2019-03-23T04:51:53.384Z,1030.34
2019-03-23T04:55:53.404Z,1030.30
2019-03-23T04:57:53.418Z,1030.31
2019-03-23T05:01:53.405Z,1030.36
2019-03-23T05:03:53.432Z,1030.37
2019-03-23T05:07:53.393Z,1030.48
2019-03-23T05:09:58.051Z,1030.42
2019-03-23T05:13:53.426Z,1030.43
2019-03-23T05:15:53.426Z,1030.39
2019-03-23T05:19:58.156Z,1030.41
2019-03-23T05:21:53.424Z,1030.45
2019-03-23T05:25:53.426Z,1030.50
2019-03-23T05:27:53.713Z,1030.53
2019-03-23T05:31:53.448Z,1030.40
2019-03-23T05:33:53.448Z,1030.41
2019-03-23T05:37:53.445Z,1030.44
2019-03-23T05:39:53.448Z,1030.41
2019-03-23T05:43:53.448Z,1030.49
2019-03-23T05:45:53.450Z,1030.53
2019-03-23T05:50:02.380Z,1030.53
2019-03-23T05:51:53.478Z,1030.51
2019-03-23T05:55:53.445Z,1030.54
2019-03-23T05:57:53.469Z,1030.48
2019-03-23T06:01:53.452Z,1030.52
2019-03-23T06:03:53.476Z,1030.50
2019-03-23T06:07:53.505Z,1030.56
2019-03-23T06:09:53.476Z,1030.56
2019-03-23T06:13:53.482Z,1030.57
2019-03-23T06:15:53.507Z,1030.60
2019-03-23T06:19:53.481Z,1030.51
2019-03-23T06:21:53.492Z,1030.50
2019-03-23T06:25:58.056Z,1030.53
2019-03-23T06:27:53.485Z,1030.57
2019-03-23T06:31:53.480Z,1030.60
2019-03-23T06:33:53.481Z,1030.55
2019-03-23T06:37:53.486Z,1030.64
2019-03-23T06:39:59.679Z,1030.65
2019-03-23T06:45:53.502Z,1030.72
2019-03-23T06:47:53.496Z,1030.75
2019-03-23T06:51:53.514Z,1030.75
2019-03-23T06:53:53.573Z,1030.82
2019-03-23T06:57:53.656Z,1030.85
2019-03-23T06:59:53.526Z,1030.84
2019-03-23T07:03:54.636Z,1030.80
2019-03-23T07:05:53.522Z,1030.81
2019-03-23T07:09:53.522Z,1030.80
2019-03-23T07:11:53.535Z,1030.76
2019-03-23T07:15:54.479Z,1030.89
2019-03-23T07:17:53.512Z,1030.85
2019-03-23T07:21:53.531Z,1030.92
2019-03-23T07:23:53.533Z,1030.88
2019-03-23T07:27:53.531Z,1031.01
2019-03-23T07:29:58.503Z,1031.06
2019-03-23T07:33:57.841Z,1031.05
2019-03-23T07:35:57.879Z,1031.06
2019-03-23T07:39:53.548Z,1031.12
2019-03-23T07:41:53.540Z,1031.11
2019-03-23T07:45:53.552Z,1031.15
2019-03-23T07:47:53.553Z,1031.11
2019-03-23T07:51:53.617Z,1031.15
2019-03-23T07:53:53.564Z,1031.15
2019-03-23T07:57:53.602Z,1031.19
2019-03-23T07:59:53.620Z,1031.17
2019-03-23T08:03:53.668Z,1031.30
2019-03-23T08:05:53.612Z,1031.32
2019-03-23T08:09:54.387Z,1031.28
2019-03-23T08:11:58.280Z,1031.30
2019-03-23T08:15:53.670Z,1031.26
2019-03-23T08:17:53.618Z,1031.34
2019-03-23T08:21:53.643Z,1031.37
2019-03-23T08:23:53.658Z,1031.43
2019-03-23T08:27:53.633Z,1031.47
2019-03-23T08:30:01.574Z,1031.54
2019-03-23T08:33:53.674Z,1031.59
2019-03-23T08:35:53.650Z,1031.51
2019-03-23T08:39:53.669Z,1031.57
2019-03-23T08:41:53.667Z,1031.54
2019-03-23T08:45:53.663Z,1031.53
2019-03-23T08:47:53.713Z,1031.58
2019-03-23T08:51:53.676Z,1031.48
2019-03-23T08:53:53.656Z,1031.49
2019-03-23T08:57:53.667Z,1031.51
2019-03-23T08:59:53.690Z,1031.49
2019-03-23T09:03:53.689Z,1031.48
2019-03-23T09:05:53.679Z,1031.57
2019-03-23T09:09:59.198Z,1031.63
2019-03-23T09:11:53.709Z,1031.61
2019-03-23T09:15:53.702Z,1031.63
2019-03-23T09:17:53.758Z,1031.68
2019-03-23T09:21:53.703Z,1031.64
2019-03-23T09:23:53.696Z,1031.62
2019-03-23T09:27:53.743Z,1031.56
2019-03-23T09:29:53.702Z,1031.60
2019-03-23T09:33:58.654Z,1031.56
2019-03-23T09:35:53.707Z,1031.63
2019-03-23T09:39:53.708Z,1031.65
2019-03-23T09:41:53.898Z,1031.75
2019-03-23T09:45:53.717Z,1031.86
2019-03-23T09:47:53.701Z,1031.79
2019-03-23T09:51:53.735Z,1032.09
2019-03-23T09:53:53.710Z,1032.18
2019-03-23T09:57:54.088Z,1032.19
2019-03-23T09:59:53.718Z,1032.24
2019-03-23T10:03:53.739Z,1032.21
2019-03-23T10:05:53.713Z,1032.23
2019-03-23T10:13:53.725Z,1032.12
2019-03-23T10:15:53.739Z,1032.16
2019-03-23T10:19:53.722Z,1032.16
2019-03-23T10:25:59.925Z,1032.17
2019-03-23T10:27:53.735Z,1032.16
2019-03-23T10:31:55.664Z,1032.13
2019-03-23T10:33:53.854Z,1032.15
2019-03-23T10:37:53.742Z,1032.16
2019-03-23T10:40:01.195Z,1032.21
2019-03-23T10:43:53.743Z,1032.27
2019-03-23T10:45:53.774Z,1032.28
2019-03-23T10:50:02.947Z,1032.31
2019-03-23T10:51:53.889Z,1032.34
2019-03-23T10:57:53.796Z,1032.34
2019-03-23T11:01:56.401Z,1032.36
2019-03-23T11:03:53.764Z,1032.34
2019-03-23T11:07:53.751Z,1032.40
2019-03-23T11:09:53.798Z,1032.47
2019-03-23T11:13:53.811Z,1032.50
2019-03-23T11:15:53.784Z,1032.51
2019-03-23T11:19:53.777Z,1032.54
2019-03-23T11:21:53.801Z,1032.51
2019-03-23T11:25:53.782Z,1032.63
2019-03-23T11:27:53.916Z,1032.66
2019-03-23T11:31:53.810Z,1032.65
2019-03-23T11:33:53.812Z,1032.69
2019-03-23T11:37:54.014Z,1032.69
2019-03-23T11:39:54.074Z,1032.67
2019-03-23T11:43:53.804Z,1032.76
2019-03-23T11:45:53.820Z,1032.77
2019-03-23T11:49:53.823Z,1032.74
2019-03-23T11:51:59.759Z,1032.72
2019-03-23T11:55:53.829Z,1032.76
2019-03-23T11:57:53.845Z,1032.79
2019-03-23T12:01:53.831Z,1032.90
2019-03-23T12:03:53.853Z,1032.95
2019-03-23T12:07:53.851Z,1032.98
2019-03-23T12:09:55.963Z,1032.98
2019-03-23T12:13:53.853Z,1032.97
2019-03-23T12:15:53.826Z,1032.95
2019-03-23T12:20:02.924Z,1033.02
2019-03-23T12:21:58.293Z,1032.99
2019-03-23T12:25:53.854Z,1033.09
2019-03-23T12:27:53.847Z,1033.10
2019-03-23T12:31:53.836Z,1033.17
2019-03-23T12:33:53.856Z,1033.18
2019-03-23T12:37:53.859Z,1033.21
2019-03-23T12:39:53.874Z,1033.18
2019-03-23T12:43:53.837Z,1033.21
2019-03-23T12:45:53.861Z,1033.22
2019-03-23T12:49:53.890Z,1033.18
2019-03-23T12:51:53.902Z,1033.12
2019-03-23T12:55:58.417Z,1033.15
2019-03-23T12:57:53.892Z,1033.16
2019-03-23T13:01:53.905Z,1033.14
2019-03-23T13:04:00.081Z,1033.11
2019-03-23T13:07:57.530Z,1033.25
2019-03-23T13:09:53.909Z,1033.28
2019-03-23T13:13:53.891Z,1033.34
2019-03-23T13:15:57.502Z,1033.25
2019-03-23T13:19:53.918Z,1033.28
2019-03-23T13:21:53.906Z,1033.27
2019-03-23T13:25:53.898Z,1033.22
2019-03-23T13:27:55.738Z,1033.24
2019-03-23T13:31:57.644Z,1033.21
2019-03-23T13:33:53.929Z,1033.17
2019-03-23T13:37:54.654Z,1033.17
2019-03-23T13:39:53.942Z,1033.13
2019-03-23T13:43:56.073Z,1033.19
2019-03-23T13:45:53.938Z,1033.11
2019-03-23T13:49:53.935Z,1033.10
2019-03-23T13:51:53.933Z,1033.19
2019-03-23T13:55:53.932Z,1033.14
2019-03-23T13:57:53.940Z,1033.11
2019-03-23T14:01:53.946Z,1033.21
2019-03-23T14:03:53.935Z,1033.19
2019-03-23T14:07:53.946Z,1033.22
2019-03-23T14:09:53.947Z,1033.18
2019-03-23T14:13:53.968Z,1033.18
2019-03-23T14:15:53.938Z,1033.18
2019-03-23T14:19:53.961Z,1033.14
2019-03-23T14:21:57.683Z,1033.07
2019-03-23T14:25:53.962Z,1033.13
2019-03-23T14:27:53.967Z,1033.10
2019-03-23T14:31:58.707Z,1033.10
2019-03-23T14:33:53.969Z,1033.11
2019-03-23T14:37:53.989Z,1033.11
2019-03-23T14:39:53.985Z,1033.11
2019-03-23T14:43:53.987Z,1033.16
2019-03-23T14:45:53.982Z,1033.19
2019-03-23T14:49:56.367Z,1033.27
2019-03-23T14:51:53.998Z,1033.25
2019-03-23T14:55:54.010Z,1033.28
2019-03-23T14:57:53.982Z,1033.24
2019-03-23T15:01:53.992Z,1033.33
2019-03-23T15:03:53.988Z,1033.34
2019-03-23T15:07:54.031Z,1033.51
2019-03-23T15:09:53.992Z,1033.44
2019-03-23T15:13:54.004Z,1033.44
2019-03-23T15:15:54.015Z,1033.49
2019-03-23T15:19:54.031Z,1033.51
2019-03-23T15:21:54.043Z,1033.44
2019-03-23T15:25:54.017Z,1033.55
2019-03-23T15:27:56.383Z,1033.52
2019-03-23T15:31:54.012Z,1033.56
2019-03-23T15:33:54.026Z,1033.60
2019-03-23T15:37:54.005Z,1033.57
2019-03-23T15:39:54.038Z,1033.59
2019-03-23T15:43:54.024Z,1033.75
2019-03-23T15:45:54.035Z,1033.79
2019-03-23T15:50:03.356Z,1033.75
2019-03-23T15:51:56.771Z,1033.73
2019-03-23T15:55:54.031Z,1033.69
2019-03-23T15:57:54.039Z,1033.72
2019-03-23T16:01:54.050Z,1033.59
2019-03-23T16:03:54.038Z,1033.64
2019-03-23T16:07:54.050Z,1033.61
2019-03-23T16:09:54.042Z,1033.61
2019-03-23T16:13:54.054Z,1033.61
2019-03-23T16:15:54.072Z,1033.59
2019-03-23T16:19:54.069Z,1033.75
2019-03-23T16:21:54.066Z,1033.72
2019-03-23T16:25:56.467Z,1033.68
2019-03-23T16:27:54.057Z,1033.67
2019-03-23T16:33:54.078Z,1033.76
2019-03-23T16:35:54.081Z,1033.85
2019-03-23T16:40:00.408Z,1033.80
2019-03-23T16:41:56.447Z,1033.80
2019-03-23T16:45:54.065Z,1033.80
2019-03-23T16:47:54.086Z,1033.77
2019-03-23T16:51:54.077Z,1033.84
2019-03-23T16:53:54.101Z,1033.89
2019-03-23T16:57:59.000Z,1033.84
2019-03-23T16:59:54.103Z,1033.77
2019-03-23T17:03:54.093Z,1033.77
2019-03-23T17:05:54.097Z,1033.89
2019-03-23T17:09:54.106Z,1033.85
2019-03-23T17:11:54.104Z,1033.85
2019-03-23T17:15:59.071Z,1033.77
2019-03-23T17:17:54.128Z,1033.85
2019-03-23T17:21:54.101Z,1033.90
2019-03-23T17:23:54.111Z,1033.80
2019-03-23T17:27:54.135Z,1033.83
2019-03-23T17:29:54.135Z,1033.87
2019-03-23T17:33:54.125Z,1033.83
2019-03-23T17:35:54.122Z,1033.87
2019-03-23T17:39:54.147Z,1033.94
2019-03-23T17:41:54.121Z,1033.97
2019-03-23T17:45:54.118Z,1033.94
2019-03-23T17:47:54.142Z,1033.93
2019-03-23T17:51:55.574Z,1033.98
2019-03-23T17:53:58.539Z,1033.94
2019-03-23T17:57:54.170Z,1033.99
2019-03-23T17:59:54.153Z,1034.02
2019-03-23T18:03:54.150Z,1034.08
2019-03-23T18:05:54.152Z,1034.07
2019-03-23T18:09:54.175Z,1034.16
2019-03-23T18:11:54.159Z,1034.20
2019-03-23T18:15:54.172Z,1034.16
2019-03-23T18:17:54.180Z,1034.25
2019-03-23T18:21:57.923Z,1034.29
2019-03-23T18:23:57.131Z,1034.25
2019-03-23T18:27:54.162Z,1034.31
2019-03-23T18:29:54.173Z,1034.40
2019-03-23T18:33:54.200Z,1034.41
2019-03-23T18:35:54.184Z,1034.45
2019-03-23T18:39:54.183Z,1034.58
2019-03-23T18:41:54.189Z,1034.60
2019-03-23T18:45:54.207Z,1034.54
2019-03-23T18:47:54.195Z,1034.67
2019-03-23T18:51:56.438Z,1034.62
2019-03-23T18:53:57.873Z,1034.69
2019-03-23T18:57:54.197Z,1034.79
2019-03-23T18:59:54.181Z,1034.71
2019-03-23T19:03:54.215Z,1034.69
2019-03-23T19:05:57.828Z,1034.63
2019-03-23T19:09:54.220Z,1034.67
2019-03-23T19:11:54.230Z,1034.72
2019-03-23T19:15:54.216Z,1034.72
2019-03-23T19:17:59.227Z,1034.71
2019-03-23T19:21:54.214Z,1034.64
2019-03-23T19:23:54.232Z,1034.65
2019-03-23T19:27:54.223Z,1034.77
2019-03-23T19:29:54.240Z,1034.72
2019-03-23T19:33:54.225Z,1034.81
2019-03-23T19:35:54.239Z,1034.86
2019-03-23T19:39:54.246Z,1034.80
2019-03-23T19:41:54.274Z,1034.91
2019-03-23T19:47:54.259Z,1034.87
2019-03-23T19:49:54.274Z,1034.93
2019-03-23T19:53:54.261Z,1034.91
2019-03-23T19:55:59.271Z,1034.91
2019-03-23T19:59:54.264Z,1034.90
2019-03-23T20:01:54.290Z,1034.92
2019-03-23T20:07:54.242Z,1034.92
2019-03-23T20:09:54.272Z,1034.92
2019-03-23T20:13:58.949Z,1034.88
2019-03-23T20:15:54.289Z,1034.88
2019-03-23T20:19:54.284Z,1034.90
2019-03-23T20:21:54.290Z,1034.92
2019-03-23T20:25:54.293Z,1034.86
2019-03-23T20:27:54.280Z,1034.92
2019-03-23T20:32:03.229Z,1034.89
2019-03-23T20:33:54.293Z,1034.87
2019-03-23T20:37:54.286Z,1034.84
2019-03-23T20:39:54.306Z,1034.84
2019-03-23T20:44:09.098Z,1034.84
2019-03-23T20:45:54.281Z,1034.72
2019-03-23T20:49:54.334Z,1034.71
2019-03-23T20:51:56.708Z,1034.74
2019-03-23T20:55:54.294Z,1034.79
2019-03-23T20:57:54.308Z,1034.85
2019-03-23T21:01:54.381Z,1034.86
2019-03-23T21:03:54.296Z,1034.82
2019-03-23T21:07:57.992Z,1034.72
2019-03-23T21:09:54.342Z,1034.76
2019-03-23T21:13:54.300Z,1034.76
2019-03-23T21:15:54.310Z,1034.75
2019-03-23T21:19:59.266Z,1034.63
2019-03-23T21:21:54.323Z,1034.63
2019-03-23T21:25:54.323Z,1034.67
2019-03-23T21:27:55.169Z,1034.64
2019-03-23T21:31:54.329Z,1034.65
2019-03-23T21:33:54.326Z,1034.60
2019-03-23T21:37:54.341Z,1034.60
2019-03-23T21:39:54.347Z,1034.53
2019-03-23T21:43:54.350Z,1034.54
2019-03-23T21:45:58.802Z,1034.51
2019-03-23T21:49:54.344Z,1034.40
2019-03-23T21:51:54.350Z,1034.42
2019-03-23T21:55:54.363Z,1034.32
2019-03-23T21:57:59.294Z,1034.41
2019-03-23T22:01:54.347Z,1034.31
2019-03-23T22:03:54.348Z,1034.24
2019-03-23T22:07:59.449Z,1034.24
2019-03-23T22:09:54.395Z,1034.23
2019-03-23T22:13:54.403Z,1034.16
2019-03-23T22:15:58.947Z,1034.14
2019-03-23T22:19:54.408Z,1034.13
2019-03-23T22:21:59.083Z,1034.13
2019-03-23T22:25:54.415Z,1034.15
2019-03-23T22:27:59.011Z,1034.15
2019-03-23T22:31:59.437Z,1034.07
2019-03-23T22:33:59.455Z,1034.20
2019-03-23T22:37:54.455Z,1034.13
2019-03-23T22:39:54.428Z,1034.24
2019-03-23T22:46:12.177Z,1034.39
2019-03-23T22:47:54.440Z,1034.37
2019-03-23T22:51:54.446Z,1034.37
2019-03-23T22:53:55.367Z,1034.33
2019-03-23T22:58:02.737Z,1034.31
2019-03-23T22:59:54.465Z,1034.29
2019-03-23T23:03:59.404Z,1034.28
2019-03-23T23:05:54.457Z,1034.26
2019-03-23T23:09:55.337Z,1034.34
2019-03-23T23:11:54.453Z,1034.30
2019-03-23T23:15:58.940Z,1034.19
2019-03-23T23:17:56.382Z,1034.14
2019-03-23T23:21:59.238Z,1034.20
2019-03-23T23:23:54.469Z,1034.15
2019-03-23T23:27:58.879Z,1034.18
2019-03-23T23:29:54.487Z,1034.22
2019-03-23T23:33:54.494Z,1034.25
2019-03-23T23:35:54.509Z,1034.29
2019-03-23T23:39:54.552Z,1034.22
2019-03-23T23:41:59.070Z,1034.26
2019-03-23T23:45:56.733Z,1034.31
2019-03-23T23:47:58.994Z,1034.32
2019-03-23T23:51:54.486Z,1034.28
2019-03-23T23:53:58.942Z,1034.34
2019-03-23T23:57:54.499Z,1034.30
2019-03-23T23:59:54.491Z,1034.20
